createdAt,value
2022-08-17T00:01:06.854Z,101154.34
2022-08-17T00:03:46.779Z,101149.75
2022-08-17T00:06:24.784Z,101156.84
2022-08-17T00:09:04.782Z,101151.34
2022-08-17T00:11:34.810Z,101144.50
2022-08-17T00:14:16.795Z,101132.00
2022-08-17T00:16:56.314Z,101126.28
2022-08-17T00:19:32.929Z,101123.16
2022-08-17T00:22:35.052Z,101137.00
2022-08-17T00:25:00.786Z,101136.91
2022-08-17T00:27:33.777Z,101128.91
2022-08-17T00:30:06.803Z,101123.97
2022-08-17T00:33:13.797Z,101123.50
2022-08-17T00:35:44.400Z,101118.25
2022-08-17T00:38:18.784Z,101122.13
2022-08-17T00:40:59.280Z,101115.50
2022-08-17T00:43:28.023Z,101121.25
2022-08-17T00:46:00.778Z,101118.38
2022-08-17T00:48:34.772Z,101110.94
2022-08-17T00:51:55.824Z,101110.13
2022-08-17T00:54:25.467Z,101117.22
2022-08-17T00:57:01.979Z,101110.00
2022-08-17T00:59:32.282Z,101107.00
2022-08-17T01:02:06.762Z,101109.19
2022-08-17T01:04:33.515Z,101104.16
2022-08-17T01:07:08.770Z,101109.28
2022-08-17T01:09:42.796Z,101100.03
2022-08-17T01:12:16.780Z,101097.78
2022-08-17T01:14:49.943Z,101097.53
2022-08-17T01:17:16.478Z,101091.25
2022-08-17T01:19:50.781Z,101091.97
2022-08-17T01:22:20.017Z,101099.72
2022-08-17T01:25:00.777Z,101091.28
2022-08-17T01:27:34.817Z,101079.91
2022-08-17T01:30:57.284Z,101088.84
2022-08-17T01:33:13.023Z,101084.88
2022-08-17T01:35:46.770Z,101080.38
2022-08-17T01:38:13.415Z,101078.88
2022-08-17T01:40:57.442Z,101081.84
2022-08-17T01:43:30.080Z,101079.75
2022-08-17T01:46:03.754Z,101083.81
2022-08-17T01:48:36.539Z,101083.13
2022-08-17T01:51:12.769Z,101080.81
2022-08-17T01:53:44.231Z,101074.84
2022-08-17T01:56:20.815Z,101076.00
2022-08-17T01:58:47.487Z,101075.50
2022-08-17T02:01:23.844Z,101070.88
2022-08-17T02:03:53.397Z,101078.25
2022-08-17T02:06:44.981Z,101075.69
2022-08-17T02:09:23.238Z,101070.25
2022-08-17T02:11:52.804Z,101070.44
2022-08-17T02:14:26.771Z,101066.66
2022-08-17T02:16:53.767Z,101072.53
2022-08-17T02:19:26.777Z,101081.22
2022-08-17T02:22:00.747Z,101081.31
2022-08-17T02:25:00.552Z,101088.50
2022-08-17T02:27:32.748Z,101106.50
2022-08-17T02:30:05.765Z,101104.28
2022-08-17T02:32:53.001Z,101121.53
2022-08-17T02:35:27.784Z,101116.13
2022-08-17T02:38:00.765Z,101127.88
2022-08-17T02:40:35.703Z,101138.28
2022-08-17T02:43:11.763Z,101134.19
2022-08-17T02:45:44.752Z,101140.03
2022-08-17T02:48:11.655Z,101139.31
2022-08-17T02:50:44.788Z,101142.75
2022-08-17T02:53:18.751Z,101140.59
2022-08-17T02:55:45.378Z,101137.38
2022-08-17T02:58:34.472Z,101130.44
2022-08-17T03:01:12.860Z,101123.56
2022-08-17T03:03:46.809Z,101127.25
2022-08-17T03:06:20.768Z,101112.44
2022-08-17T03:08:53.760Z,101111.97
2022-08-17T03:11:26.761Z,101122.50
2022-08-17T03:13:53.201Z,101111.47
2022-08-17T03:16:27.796Z,101114.91
2022-08-17T03:18:54.986Z,101112.19
2022-08-17T03:21:28.767Z,101107.63
2022-08-17T03:24:01.757Z,101098.16
2022-08-17T03:26:42.749Z,101092.63
2022-08-17T03:29:18.984Z,101090.22
2022-08-17T03:31:54.756Z,101096.53
2022-08-17T03:34:27.765Z,101093.59
2022-08-17T03:37:00.735Z,101088.31
2022-08-17T03:39:34.781Z,101092.16
2022-08-17T03:42:31.377Z,101089.91
2022-08-17T03:45:06.735Z,101097.41
2022-08-17T03:47:51.699Z,101092.44
2022-08-17T03:50:44.760Z,101104.63
2022-08-17T03:53:33.722Z,101109.34
2022-08-17T03:56:30.768Z,101124.94
2022-08-17T03:58:57.136Z,101140.53
2022-08-17T04:01:23.766Z,101137.06
2022-08-17T04:03:56.749Z,101131.22
2022-08-17T04:06:30.781Z,101139.88
2022-08-17T04:08:57.198Z,101131.88
2022-08-17T04:11:30.747Z,101136.59
2022-08-17T04:13:57.264Z,101144.50
2022-08-17T04:16:33.525Z,101144.28
2022-08-17T04:19:06.742Z,101141.88
2022-08-17T04:21:40.755Z,101142.03
2022-08-17T04:24:14.812Z,101138.50
2022-08-17T04:26:53.826Z,101140.25
2022-08-17T04:29:55.098Z,101142.78
2022-08-17T04:32:24.857Z,101148.66
2022-08-17T04:35:13.758Z,101145.31
2022-08-17T04:37:40.222Z,101147.69
2022-08-17T04:40:32.769Z,101146.09
2022-08-17T04:43:07.763Z,101146.34
2022-08-17T04:45:55.251Z,101132.00
2022-08-17T04:48:35.402Z,101142.25
2022-08-17T04:51:10.737Z,101136.97
2022-08-17T04:53:38.890Z,101133.84
2022-08-17T04:56:17.059Z,101145.19
2022-08-17T04:58:48.132Z,101130.75
2022-08-17T05:01:24.543Z,101134.16
2022-08-17T05:03:59.766Z,101122.84
2022-08-17T05:06:29.747Z,101134.88
2022-08-17T05:08:57.817Z,101131.69
2022-08-17T05:11:32.768Z,101137.19
2022-08-17T05:13:59.657Z,101140.97
2022-08-17T05:16:33.729Z,101141.75
2022-08-17T05:19:00.208Z,101143.13
2022-08-17T05:21:34.747Z,101147.59
2022-08-17T05:24:01.188Z,101143.84
2022-08-17T05:26:32.462Z,101137.66
2022-08-17T05:29:10.746Z,101137.81
2022-08-17T05:31:44.978Z,101130.97
2022-08-17T05:34:17.729Z,101132.22
2022-08-17T05:36:44.764Z,101134.63
2022-08-17T05:39:22.772Z,101128.44
2022-08-17T05:41:49.209Z,101131.22
2022-08-17T05:44:16.502Z,101132.50
2022-08-17T05:46:56.756Z,101133.19
2022-08-17T05:49:27.883Z,101130.56
2022-08-17T05:52:20.250Z,101134.00
2022-08-17T05:55:23.731Z,101139.50
2022-08-17T05:58:14.983Z,101133.56
2022-08-17T06:00:57.392Z,101133.56
2022-08-17T06:03:45.749Z,101130.72
2022-08-17T06:06:44.744Z,101114.19
2022-08-17T06:09:34.735Z,101118.25
2022-08-17T06:12:28.756Z,101112.53
2022-08-17T06:15:02.260Z,101109.88
2022-08-17T06:17:44.745Z,101116.09
2022-08-17T06:20:22.807Z,101127.75
2022-08-17T06:23:14.004Z,101127.03
2022-08-17T06:25:50.890Z,101138.25
2022-08-17T06:28:37.032Z,101136.00
2022-08-17T06:31:15.495Z,101134.13
2022-08-17T06:33:53.736Z,101127.78
2022-08-17T06:36:48.720Z,101137.38
2022-08-17T06:39:46.758Z,101142.75
2022-08-17T06:43:02.454Z,101151.53
2022-08-17T06:45:40.730Z,101161.53
2022-08-17T06:48:21.722Z,101167.59
2022-08-17T06:51:18.744Z,101171.31
2022-08-17T06:54:06.423Z,101172.16
2022-08-17T06:56:55.438Z,101176.66
2022-08-17T06:59:54.799Z,101169.53
2022-08-17T07:02:56.867Z,101169.69
2022-08-17T07:05:40.727Z,101175.31
2022-08-17T07:08:18.520Z,101165.06
2022-08-17T07:11:04.751Z,101167.84
2022-08-17T07:13:37.379Z,101168.56
2022-08-17T07:16:28.766Z,101170.66
2022-08-17T07:18:57.200Z,101173.84
2022-08-17T07:21:44.738Z,101174.03
2022-08-17T07:24:26.234Z,101181.09
2022-08-17T07:27:28.709Z,101181.94
2022-08-17T07:30:16.743Z,101186.66
2022-08-17T07:32:45.260Z,101190.34
2022-08-17T07:35:15.331Z,101195.63
2022-08-17T07:37:52.716Z,101202.50
2022-08-17T07:40:34.786Z,101200.25
2022-08-17T07:43:23.067Z,101190.03
2022-08-17T07:46:25.714Z,101190.31
2022-08-17T07:49:01.748Z,101185.91
2022-08-17T07:51:31.511Z,101184.47
2022-08-17T07:54:33.730Z,101184.13
2022-08-17T07:57:29.408Z,101195.72
2022-08-17T08:00:08.713Z,101195.50
2022-08-17T08:02:52.737Z,101194.78
2022-08-17T08:05:49.862Z,101197.44
2022-08-17T08:08:39.851Z,101199.00
2022-08-17T08:11:10.139Z,101193.81
2022-08-17T08:13:52.809Z,101203.41
2022-08-17T08:16:29.645Z,101202.47
2022-08-17T08:19:06.721Z,101209.00
2022-08-17T08:21:50.713Z,101215.34
2022-08-17T08:25:08.732Z,101217.19
2022-08-17T08:28:11.780Z,101216.94
2022-08-17T08:30:53.706Z,101216.81
2022-08-17T08:33:40.908Z,101227.69
2022-08-17T08:37:12.982Z,101238.47
2022-08-17T08:39:50.770Z,101240.16
2022-08-17T08:42:27.324Z,101242.16
2022-08-17T08:45:22.713Z,101255.53
2022-08-17T08:48:22.911Z,101258.16
2022-08-17T08:51:12.712Z,101266.88
2022-08-17T08:53:55.396Z,101266.06
2022-08-17T08:56:37.708Z,101255.09
2022-08-17T08:59:10.690Z,101242.53
2022-08-17T09:02:11.798Z,101235.56
2022-08-17T09:05:13.931Z,101238.91
2022-08-17T09:07:48.780Z,101230.09
2022-08-17T09:10:27.321Z,101219.78
2022-08-17T09:13:14.713Z,101226.16
2022-08-17T09:15:46.715Z,101226.16
2022-08-17T09:18:59.924Z,101240.94
2022-08-17T09:21:48.765Z,101248.78
2022-08-17T09:24:37.112Z,101273.63
2022-08-17T09:27:28.711Z,101324.06
2022-08-17T09:30:07.828Z,101356.41
2022-08-17T09:32:50.735Z,101360.66
2022-08-17T09:35:36.734Z,101353.28
2022-08-17T09:38:22.300Z,101348.63
2022-08-17T09:41:04.720Z,101306.56
2022-08-17T09:43:46.705Z,101250.50
2022-08-17T09:46:34.715Z,101221.97
2022-08-17T09:49:25.397Z,101219.84
2022-08-17T09:51:58.465Z,101216.00
2022-08-17T09:54:39.701Z,101199.72
2022-08-17T09:57:38.785Z,101193.09
2022-08-17T10:00:18.769Z,101187.47
2022-08-17T10:02:45.309Z,101195.03
2022-08-17T10:05:43.706Z,101206.75
2022-08-17T10:08:24.261Z,101226.38
2022-08-17T10:11:19.725Z,101225.00
2022-08-17T10:13:56.010Z,101214.00
2022-08-17T10:16:44.693Z,101211.66
2022-08-17T10:19:35.605Z,101214.88
2022-08-17T10:22:37.914Z,101218.25
2022-08-17T10:25:37.614Z,101226.44
2022-08-17T10:28:25.808Z,101229.06
2022-08-17T10:34:38.662Z,101232.19
2022-08-17T10:37:19.810Z,101228.34
2022-08-17T10:40:14.953Z,101223.13
2022-08-17T10:42:59.174Z,101227.13
2022-08-17T10:46:09.417Z,101247.75
2022-08-17T10:49:16.619Z,101246.06
2022-08-17T10:51:54.691Z,101237.03
2022-08-17T10:54:24.038Z,101247.22
2022-08-17T10:57:01.734Z,101244.69
2022-08-17T10:59:43.743Z,101249.75
2022-08-17T11:02:38.692Z,101246.09
2022-08-17T11:05:23.627Z,101252.47
2022-08-17T11:08:04.687Z,101245.88
2022-08-17T11:10:51.978Z,101259.09
2022-08-17T11:13:43.103Z,101275.06
2022-08-17T11:16:41.763Z,101301.75
2022-08-17T11:19:39.713Z,101313.75
2022-08-17T11:22:33.609Z,101321.31
2022-08-17T11:25:25.694Z,101339.78
2022-08-17T11:28:40.680Z,101340.25
2022-08-17T11:31:38.281Z,101342.78
2022-08-17T11:34:35.169Z,101340.06
2022-08-17T11:37:02.022Z,101335.72
2022-08-17T11:40:12.938Z,101316.50
2022-08-17T11:42:51.772Z,101311.78
2022-08-17T11:45:43.755Z,101309.38
2022-08-17T11:48:44.711Z,101314.09
2022-08-17T11:51:35.669Z,101307.97
2022-08-17T11:54:32.146Z,101297.88
2022-08-17T11:57:27.734Z,101310.19
2022-08-17T11:59:58.586Z,101314.63
2022-08-17T12:02:37.698Z,101324.06
2022-08-17T12:05:28.697Z,101327.09
2022-08-17T12:08:33.480Z,101310.03
2022-08-17T12:11:57.833Z,101326.28
2022-08-17T12:14:45.445Z,101323.63
2022-08-17T12:17:40.838Z,101307.31
2022-08-17T12:20:56.780Z,101305.34
2022-08-17T12:23:40.625Z,101304.94
2022-08-17T12:26:28.675Z,101305.06
2022-08-17T12:29:00.008Z,101297.16
2022-08-17T12:31:44.686Z,101304.47
2022-08-17T12:34:34.713Z,101306.84
2022-08-17T12:37:05.757Z,101301.41
2022-08-17T12:39:38.746Z,101296.06
2022-08-17T12:42:28.717Z,101302.19
2022-08-17T12:44:55.610Z,101291.47
2022-08-17T12:47:29.445Z,101285.16
2022-08-17T12:50:29.206Z,101291.13
2022-08-17T12:53:02.674Z,101281.06
2022-08-17T12:55:35.047Z,101281.00
2022-08-17T12:58:13.606Z,101272.41
2022-08-17T13:00:48.767Z,101272.81
2022-08-17T13:03:25.691Z,101280.88
2022-08-17T13:05:52.211Z,101281.91
2022-08-17T13:08:48.686Z,101295.47
2022-08-17T13:11:16.120Z,101305.81
2022-08-17T13:13:52.726Z,101312.13
2022-08-17T13:19:39.869Z,101298.28
2022-08-17T13:22:18.694Z,101300.59
2022-08-17T13:25:04.678Z,101309.66
2022-08-17T13:27:32.855Z,101309.09
2022-08-17T13:30:18.694Z,101316.13
2022-08-17T13:32:55.898Z,101311.56
2022-08-17T13:35:44.136Z,101305.09
2022-08-17T13:38:42.681Z,101294.66
2022-08-17T13:41:36.687Z,101297.00
2022-08-17T13:44:39.676Z,101288.53
2022-08-17T13:47:16.565Z,101292.25
2022-08-17T13:49:50.711Z,101290.03
2022-08-17T13:52:50.071Z,101289.00
2022-08-17T13:55:28.691Z,101279.31
2022-08-17T13:58:07.180Z,101289.16
2022-08-17T14:00:42.683Z,101283.63
2022-08-17T14:03:16.684Z,101280.59
2022-08-17T14:05:43.238Z,101279.69
2022-08-17T14:08:20.743Z,101271.22
2022-08-17T14:10:57.109Z,101273.00
2022-08-17T14:13:30.696Z,101262.25
2022-08-17T14:15:57.306Z,101261.53
2022-08-17T14:18:55.541Z,101267.31
2022-08-17T14:21:23.697Z,101254.69
2022-08-17T14:26:52.720Z,101253.28
2022-08-17T14:29:27.685Z,101249.91
2022-08-17T14:31:55.367Z,101249.97
2022-08-17T14:34:30.691Z,101239.41
2022-08-17T14:36:57.086Z,101245.50
2022-08-17T14:39:29.731Z,101245.56
2022-08-17T14:42:04.698Z,101248.56
2022-08-17T14:44:31.271Z,101236.22
2022-08-17T14:46:57.731Z,101246.44
2022-08-17T14:49:32.712Z,101238.91
2022-08-17T14:52:06.676Z,101232.66
2022-08-17T14:54:45.158Z,101237.16
2022-08-17T14:57:33.743Z,101234.94
2022-08-17T15:00:06.671Z,101223.88
2022-08-17T15:02:44.069Z,101224.84
2022-08-17T15:05:16.690Z,101227.19
2022-08-17T15:07:44.511Z,101224.72
2022-08-17T15:10:23.411Z,101230.69
2022-08-17T15:12:52.150Z,101224.94
2022-08-17T15:15:24.662Z,101222.09
2022-08-17T15:17:51.582Z,101222.41
2022-08-17T15:20:27.738Z,101221.91
2022-08-17T15:22:56.105Z,101223.03
2022-08-17T15:25:24.947Z,101223.59
2022-08-17T15:27:58.705Z,101224.13
2022-08-17T15:30:27.143Z,101224.25
2022-08-17T15:33:00.762Z,101234.53
2022-08-17T15:35:30.411Z,101232.44
2022-08-17T15:38:11.799Z,101235.44
2022-08-17T15:40:43.373Z,101232.72
2022-08-17T15:43:26.450Z,101231.34
2022-08-17T15:46:18.666Z,101236.03
2022-08-17T15:48:58.671Z,101237.72
2022-08-17T15:51:41.219Z,101235.84
2022-08-17T15:54:18.912Z,101231.94
2022-08-17T15:56:56.680Z,101227.34
2022-08-17T15:59:23.093Z,101226.38
2022-08-17T16:03:14.688Z,101224.66
2022-08-17T16:04:44.142Z,101225.25
2022-08-17T16:07:21.872Z,101224.59
2022-08-17T16:09:58.694Z,101228.44
2022-08-17T16:12:32.673Z,101233.44
2022-08-17T16:14:59.256Z,101234.84
2022-08-17T16:17:38.898Z,101245.13
2022-08-17T16:20:20.440Z,101246.69
2022-08-17T16:22:49.225Z,101242.34
2022-08-17T16:25:52.212Z,101247.53
2022-08-17T16:28:22.735Z,101247.72
2022-08-17T16:31:08.878Z,101247.13
2022-08-17T16:33:37.598Z,101244.72
2022-08-17T16:36:10.675Z,101240.47
2022-08-17T16:38:38.640Z,101245.22
2022-08-17T16:41:12.660Z,101241.09
2022-08-17T16:43:45.711Z,101247.06
2022-08-17T16:46:45.887Z,101243.31
2022-08-17T16:49:35.749Z,101240.34
2022-08-17T16:52:14.669Z,101250.91
2022-08-17T16:55:01.348Z,101251.34
2022-08-17T16:57:34.696Z,101248.69
2022-08-17T17:00:12.659Z,101259.50
2022-08-17T17:02:57.867Z,101261.84
2022-08-17T17:05:55.222Z,101250.22
2022-08-17T17:08:50.823Z,101252.38
2022-08-17T17:11:34.047Z,101246.94
2022-08-17T17:14:10.675Z,101246.81
2022-08-17T17:17:10.582Z,101235.28
2022-08-17T17:19:45.948Z,101243.91
2022-08-17T17:22:24.601Z,101247.13
2022-08-17T17:25:21.679Z,101242.63
2022-08-17T17:28:12.664Z,101242.38
2022-08-17T17:31:03.260Z,101250.06
2022-08-17T17:33:52.575Z,101256.09
2022-08-17T17:36:32.590Z,101260.66
2022-08-17T17:39:12.578Z,101260.53
2022-08-17T17:41:51.444Z,101256.63
2022-08-17T17:44:30.657Z,101267.63
2022-08-17T17:47:00.091Z,101269.72
2022-08-17T17:49:30.300Z,101261.78
2022-08-17T17:52:18.897Z,101261.84
2022-08-17T17:55:02.593Z,101272.00
2022-08-17T17:58:02.576Z,101275.19
2022-08-17T18:00:53.355Z,101273.38
2022-08-17T18:03:50.583Z,101270.97
2022-08-17T18:06:45.434Z,101280.41
2022-08-17T18:09:38.578Z,101270.88
2022-08-17T18:12:39.002Z,101275.06
2022-08-17T18:15:21.465Z,101282.66
2022-08-17T18:18:31.081Z,101280.84
2022-08-17T18:21:14.568Z,101279.88
2022-08-17T18:24:01.835Z,101283.31
2022-08-17T18:26:56.578Z,101293.31
2022-08-17T18:29:38.777Z,101297.63
2022-08-17T18:32:19.350Z,101302.03
2022-08-17T18:34:55.582Z,101309.84
2022-08-17T18:37:39.568Z,101308.00
2022-08-17T18:40:26.590Z,101312.25
2022-08-17T18:43:05.152Z,101315.91
2022-08-17T18:45:56.583Z,101314.78
2022-08-17T18:48:29.794Z,101320.13
2022-08-17T18:51:40.733Z,101309.72
2022-08-17T18:54:23.957Z,101304.50
2022-08-17T18:57:05.556Z,101315.06
2022-08-17T18:59:42.305Z,101308.09
2022-08-17T19:02:34.634Z,101302.25
2022-08-17T19:05:26.259Z,101303.53
2022-08-17T19:07:59.634Z,101304.81
2022-08-17T19:10:46.365Z,101310.44
2022-08-17T19:13:36.669Z,101303.47
2022-08-17T19:16:18.718Z,101305.31
2022-08-17T19:19:20.672Z,101315.38
2022-08-17T19:22:13.612Z,101323.06
2022-08-17T19:25:02.579Z,101331.53
2022-08-17T19:27:46.510Z,101338.75
2022-08-17T19:30:24.661Z,101346.22
2022-08-17T19:32:51.428Z,101354.13
2022-08-17T19:35:20.161Z,101356.75
2022-08-17T19:37:59.601Z,101360.97
2022-08-17T19:43:40.639Z,101368.09
2022-08-17T19:46:35.561Z,101370.50
2022-08-17T19:49:22.381Z,101377.63
2022-08-17T19:52:26.596Z,101383.91
2022-08-17T19:55:08.725Z,101380.50
2022-08-17T19:57:45.528Z,101380.50
2022-08-17T20:00:22.567Z,101386.56
2022-08-17T20:03:06.074Z,101379.91
2022-08-17T20:06:10.876Z,101374.84
2022-08-17T20:08:39.193Z,101374.53
2022-08-17T20:11:26.575Z,101374.19
2022-08-17T20:14:03.603Z,101375.81
2022-08-17T20:16:46.552Z,101369.72
2022-08-17T20:19:29.281Z,101363.66
2022-08-17T20:22:10.553Z,101364.09
2022-08-17T20:24:54.618Z,101360.13
2022-08-17T20:27:31.589Z,101351.38
2022-08-17T20:30:12.129Z,101357.25
2022-08-17T20:33:02.568Z,101348.19
2022-08-17T20:35:37.254Z,101353.22
2022-08-17T20:38:48.775Z,101343.94
2022-08-17T20:41:20.910Z,101339.47
2022-08-17T20:43:58.576Z,101339.22
2022-08-17T20:46:40.330Z,101339.47
2022-08-17T20:49:29.541Z,101341.66
2022-08-17T20:52:13.923Z,101346.56
2022-08-17T20:54:54.574Z,101355.28
2022-08-17T20:57:33.577Z,101353.22
2022-08-17T21:00:24.552Z,101351.38
2022-08-17T21:03:18.565Z,101353.56
2022-08-17T21:05:57.327Z,101354.94
2022-08-17T21:08:46.587Z,101360.75
2022-08-17T21:12:03.104Z,101360.06
2022-08-17T21:14:29.359Z,101363.38
2022-08-17T21:17:22.363Z,101370.78
2022-08-17T21:20:32.508Z,101367.25
2022-08-17T21:23:32.197Z,101369.53
2022-08-17T21:26:35.752Z,101375.22
2022-08-17T21:29:31.608Z,101382.56
2022-08-17T21:32:06.759Z,101384.75
2022-08-17T21:34:44.211Z,101382.47
2022-08-17T21:37:26.602Z,101383.03
2022-08-17T21:40:01.677Z,101387.63
2022-08-17T21:42:42.757Z,101387.84
2022-08-17T21:45:19.627Z,101381.78
2022-08-17T21:48:12.764Z,101388.19
2022-08-17T21:50:41.752Z,101395.50
2022-08-17T21:53:20.555Z,101390.69
2022-08-17T21:55:50.368Z,101404.63
2022-08-17T21:58:40.759Z,101402.88
2022-08-17T22:01:28.637Z,101404.69
2022-08-17T22:04:26.585Z,101402.72
2022-08-17T22:06:57.114Z,101402.25
2022-08-17T22:09:42.808Z,101403.13
2022-08-17T22:12:13.595Z,101400.50
2022-08-17T22:14:52.506Z,101406.34
2022-08-17T22:17:29.794Z,101401.31
2022-08-17T22:20:22.552Z,101402.56
2022-08-17T22:23:07.419Z,101418.94
2022-08-17T22:25:43.551Z,101411.59
2022-08-17T22:28:12.223Z,101406.91
2022-08-17T22:30:40.170Z,101401.31
2022-08-17T22:33:50.761Z,101397.56
2022-08-17T22:36:33.804Z,101403.13
2022-08-17T22:39:10.725Z,101397.88
2022-08-17T22:41:42.157Z,101410.81
2022-08-17T22:44:36.738Z,101411.47
2022-08-17T22:47:16.441Z,101412.88
2022-08-17T22:50:06.581Z,101411.25
2022-08-17T22:53:03.749Z,101406.69
2022-08-17T22:55:50.910Z,101410.97
2022-08-17T22:58:59.141Z,101416.44
2022-08-17T23:25:09.724Z,101422.38
2022-08-17T23:27:36.828Z,101422.00
2022-08-17T23:30:10.769Z,101425.06
2022-08-17T23:32:47.413Z,101427.31
2022-08-17T23:35:40.097Z,101433.03
2022-08-17T23:38:12.973Z,101443.97
2022-08-17T23:40:46.609Z,101438.06
2022-08-17T23:43:23.937Z,101435.06
2022-08-17T23:45:58.554Z,101434.50
2022-08-17T23:48:36.031Z,101425.63
2022-08-17T23:51:26.735Z,101422.22
2022-08-17T23:53:58.268Z,101417.16
2022-08-17T23:56:26.058Z,101417.38
2022-08-17T23:59:04.653Z,101411.53
